sensor_id;sensor_type;location;lat;lon;timestamp;P1;durP1;ratioP1;P2;durP2;ratioP2
67981;SDS011;64109;52.148;4.466;2023-08-20T00:00:25;3.60;;;1.67;;
67981;SDS011;64109;52.148;4.466;2023-08-20T00:03:00;3.42;;;1.42;;
67981;SDS011;64109;52.148;4.466;2023-08-20T00:05:28;3.40;;;1.23;;
67981;SDS011;64109;52.148;4.466;2023-08-20T00:07:55;4.50;;;2.08;;
67981;SDS011;64109;52.148;4.466;2023-08-20T00:10:21;4.75;;;1.98;;
67981;SDS011;64109;52.148;4.466;2023-08-20T00:12:46;3.85;;;1.90;;
67981;SDS011;64109;52.148;4.466;2023-08-20T00:15:12;6.10;;;2.25;;
67981;SDS011;64109;52.148;4.466;2023-08-20T00:17:39;4.65;;;2.63;;
67981;SDS011;64109;52.148;4.466;2023-08-20T00:20:06;7.30;;;2.20;;
67981;SDS011;64109;52.148;4.466;2023-08-20T00:22:38;6.00;;;2.13;;
67981;SDS011;64109;52.148;4.466;2023-08-20T00:25:04;4.38;;;2.00;;
67981;SDS011;64109;52.148;4.466;2023-08-20T00:27:31;5.68;;;2.25;;
67981;SDS011;64109;52.148;4.466;2023-08-20T00:29:57;2.67;;;1.15;;
67981;SDS011;64109;52.148;4.466;2023-08-20T00:32:23;5.88;;;1.90;;
67981;SDS011;64109;52.148;4.466;2023-08-20T00:34:49;3.20;;;2.50;;
67981;SDS011;64109;52.148;4.466;2023-08-20T00:37:15;4.32;;;2.35;;
67981;SDS011;64109;52.148;4.466;2023-08-20T00:39:41;3.83;;;2.13;;
67981;SDS011;64109;52.148;4.466;2023-08-20T00:42:07;2.83;;;1.45;;
67981;SDS011;64109;52.148;4.466;2023-08-20T00:44:33;4.35;;;2.38;;
67981;SDS011;64109;52.148;4.466;2023-08-20T00:47:00;3.83;;;2.60;;
67981;SDS011;64109;52.148;4.466;2023-08-20T00:49:26;3.25;;;1.95;;
67981;SDS011;64109;52.148;4.466;2023-08-20T00:51:52;4.43;;;2.10;;
67981;SDS011;64109;52.148;4.466;2023-08-20T00:54:19;4.43;;;2.22;;
67981;SDS011;64109;52.148;4.466;2023-08-20T00:56:46;3.55;;;1.20;;
67981;SDS011;64109;52.148;4.466;2023-08-20T00:59:13;3.22;;;1.48;;
67981;SDS011;64109;52.148;4.466;2023-08-20T01:01:39;4.10;;;2.20;;
67981;SDS011;64109;52.148;4.466;2023-08-20T01:04:05;5.20;;;1.45;;
67981;SDS011;64109;52.148;4.466;2023-08-20T01:14:16;3.63;;;1.85;;
67981;SDS011;64109;52.148;4.466;2023-08-20T01:16:42;6.20;;;2.22;;
67981;SDS011;64109;52.148;4.466;2023-08-20T01:19:10;2.17;;;1.25;;
67981;SDS011;64109;52.148;4.466;2023-08-20T01:21:39;3.40;;;2.20;;
67981;SDS011;64109;52.148;4.466;2023-08-20T01:24:05;3.55;;;1.73;;
67981;SDS011;64109;52.148;4.466;2023-08-20T01:26:40;5.53;;;1.40;;
67981;SDS011;64109;52.148;4.466;2023-08-20T01:29:10;4.68;;;2.47;;
67981;SDS011;64109;52.148;4.466;2023-08-20T01:31:36;4.10;;;2.22;;
67981;SDS011;64109;52.148;4.466;2023-08-20T01:34:03;5.95;;;2.40;;
67981;SDS011;64109;52.148;4.466;2023-08-20T01:36:29;4.35;;;1.45;;
67981;SDS011;64109;52.148;4.466;2023-08-20T01:38:55;5.28;;;1.80;;
67981;SDS011;64109;52.148;4.466;2023-08-20T01:41:21;3.47;;;1.13;;
67981;SDS011;64109;52.148;4.466;2023-08-20T01:43:47;3.28;;;1.88;;
67981;SDS011;64109;52.148;4.466;2023-08-20T01:46:13;5.55;;;2.20;;
67981;SDS011;64109;52.148;4.466;2023-08-20T01:48:39;4.18;;;1.50;;
67981;SDS011;64109;52.148;4.466;2023-08-20T01:51:05;4.32;;;2.42;;
67981;SDS011;64109;52.148;4.466;2023-08-20T01:53:31;3.72;;;2.10;;
67981;SDS011;64109;52.148;4.466;2023-08-20T01:55:57;4.10;;;2.35;;
67981;SDS011;64109;52.148;4.466;2023-08-20T01:58:23;3.47;;;1.52;;
67981;SDS011;64109;52.148;4.466;2023-08-20T02:00:50;3.28;;;1.38;;
67981;SDS011;64109;52.148;4.466;2023-08-20T02:03:17;3.60;;;1.25;;
67981;SDS011;64109;52.148;4.466;2023-08-20T02:05:43;4.95;;;1.35;;
67981;SDS011;64109;52.148;4.466;2023-08-20T02:08:09;4.30;;;2.30;;
67981;SDS011;64109;52.148;4.466;2023-08-20T02:10:35;3.22;;;1.30;;
67981;SDS011;64109;52.148;4.466;2023-08-20T02:13:01;5.03;;;1.98;;
67981;SDS011;64109;52.148;4.466;2023-08-20T02:15:28;3.90;;;2.40;;
67981;SDS011;64109;52.148;4.466;2023-08-20T02:17:56;5.65;;;2.15;;
67981;SDS011;64109;52.148;4.466;2023-08-20T02:20:22;5.28;;;2.00;;
67981;SDS011;64109;52.148;4.466;2023-08-20T02:22:48;3.47;;;1.15;;
67981;SDS011;64109;52.148;4.466;2023-08-20T02:25:14;3.50;;;1.98;;
67981;SDS011;64109;52.148;4.466;2023-08-20T02:27:40;3.80;;;1.25;;
67981;SDS011;64109;52.148;4.466;2023-08-20T02:30:06;4.60;;;1.55;;
67981;SDS011;64109;52.148;4.466;2023-08-20T02:32:33;3.00;;;1.92;;
67981;SDS011;64109;52.148;4.466;2023-08-20T02:34:59;5.00;;;1.40;;
67981;SDS011;64109;52.148;4.466;2023-08-20T02:37:25;3.53;;;1.45;;
67981;SDS011;64109;52.148;4.466;2023-08-20T02:39:51;4.88;;;1.90;;
67981;SDS011;64109;52.148;4.466;2023-08-20T02:42:17;3.42;;;1.35;;
67981;SDS011;64109;52.148;4.466;2023-08-20T02:44:43;4.90;;;1.40;;
67981;SDS011;64109;52.148;4.466;2023-08-20T02:47:09;4.13;;;2.00;;
67981;SDS011;64109;52.148;4.466;2023-08-20T02:49:35;5.25;;;2.50;;
67981;SDS011;64109;52.148;4.466;2023-08-20T02:52:01;4.32;;;1.92;;
67981;SDS011;64109;52.148;4.466;2023-08-20T02:54:28;2.80;;;1.08;;
67981;SDS011;64109;52.148;4.466;2023-08-20T02:56:57;3.88;;;1.80;;
67981;SDS011;64109;52.148;4.466;2023-08-20T02:59:22;4.88;;;1.80;;
67981;SDS011;64109;52.148;4.466;2023-08-20T03:01:48;4.68;;;2.05;;
67981;SDS011;64109;52.148;4.466;2023-08-20T03:04:15;4.35;;;2.30;;
67981;SDS011;64109;52.148;4.466;2023-08-20T03:06:41;3.25;;;2.13;;
67981;SDS011;64109;52.148;4.466;2023-08-20T03:09:07;3.45;;;1.90;;
67981;SDS011;64109;52.148;4.466;2023-08-20T03:11:32;3.90;;;1.83;;
67981;SDS011;64109;52.148;4.466;2023-08-20T03:13:58;4.32;;;2.17;;
67981;SDS011;64109;52.148;4.466;2023-08-20T03:16:24;2.92;;;1.33;;
67981;SDS011;64109;52.148;4.466;2023-08-20T03:18:50;3.75;;;1.25;;
67981;SDS011;64109;52.148;4.466;2023-08-20T03:21:16;5.22;;;2.15;;
67981;SDS011;64109;52.148;4.466;2023-08-20T03:23:42;4.30;;;1.48;;
67981;SDS011;64109;52.148;4.466;2023-08-20T03:26:08;4.63;;;1.88;;
67981;SDS011;64109;52.148;4.466;2023-08-20T03:28:34;3.70;;;1.80;;
67981;SDS011;64109;52.148;4.466;2023-08-20T03:31:00;3.95;;;1.40;;
67981;SDS011;64109;52.148;4.466;2023-08-20T03:33:27;5.40;;;1.85;;
67981;SDS011;64109;52.148;4.466;2023-08-20T03:35:53;5.13;;;1.38;;
67981;SDS011;64109;52.148;4.466;2023-08-20T03:38:19;4.45;;;1.90;;
67981;SDS011;64109;52.148;4.466;2023-08-20T03:40:45;4.55;;;2.08;;
67981;SDS011;64109;52.148;4.466;2023-08-20T03:43:11;4.05;;;2.05;;
67981;SDS011;64109;52.148;4.466;2023-08-20T03:45:37;2.90;;;1.17;;
67981;SDS011;64109;52.148;4.466;2023-08-20T03:48:03;2.67;;;1.30;;
67981;SDS011;64109;52.148;4.466;2023-08-20T03:50:29;3.80;;;2.00;;
67981;SDS011;64109;52.148;4.466;2023-08-20T03:52:55;4.47;;;1.00;;
67981;SDS011;64109;52.148;4.466;2023-08-20T03:55:22;4.18;;;2.30;;
67981;SDS011;64109;52.148;4.466;2023-08-20T03:57:48;2.40;;;0.90;;
67981;SDS011;64109;52.148;4.466;2023-08-20T04:00:14;4.68;;;1.92;;
67981;SDS011;64109;52.148;4.466;2023-08-20T04:02:40;3.05;;;1.13;;
67981;SDS011;64109;52.148;4.466;2023-08-20T04:05:06;4.10;;;1.10;;
67981;SDS011;64109;52.148;4.466;2023-08-20T04:07:32;3.45;;;2.17;;
67981;SDS011;64109;52.148;4.466;2023-08-20T04:09:58;3.53;;;2.05;;
67981;SDS011;64109;52.148;4.466;2023-08-20T04:12:24;3.03;;;2.03;;
67981;SDS011;64109;52.148;4.466;2023-08-20T04:14:50;4.45;;;1.50;;
67981;SDS011;64109;52.148;4.466;2023-08-20T04:17:16;4.72;;;2.10;;
67981;SDS011;64109;52.148;4.466;2023-08-20T04:19:42;3.55;;;1.00;;
67981;SDS011;64109;52.148;4.466;2023-08-20T04:22:08;4.00;;;1.80;;
67981;SDS011;64109;52.148;4.466;2023-08-20T04:24:34;4.10;;;1.95;;
67981;SDS011;64109;52.148;4.466;2023-08-20T04:27:00;4.05;;;1.13;;
67981;SDS011;64109;52.148;4.466;2023-08-20T04:29:26;4.43;;;1.70;;
67981;SDS011;64109;52.148;4.466;2023-08-20T04:31:52;3.85;;;1.80;;
67981;SDS011;64109;52.148;4.466;2023-08-20T04:34:18;3.92;;;1.90;;
67981;SDS011;64109;52.148;4.466;2023-08-20T04:36:44;3.45;;;1.10;;
67981;SDS011;64109;52.148;4.466;2023-08-20T04:39:10;3.10;;;1.90;;
67981;SDS011;64109;52.148;4.466;2023-08-20T04:41:36;3.47;;;1.73;;
67981;SDS011;64109;52.148;4.466;2023-08-20T04:44:02;4.00;;;1.75;;
67981;SDS011;64109;52.148;4.466;2023-08-20T04:46:28;2.92;;;1.70;;
67981;SDS011;64109;52.148;4.466;2023-08-20T04:48:54;3.60;;;1.92;;
67981;SDS011;64109;52.148;4.466;2023-08-20T04:51:20;4.13;;;1.85;;
67981;SDS011;64109;52.148;4.466;2023-08-20T04:53:46;3.47;;;1.73;;
67981;SDS011;64109;52.148;4.466;2023-08-20T04:56:12;2.90;;;1.98;;
67981;SDS011;64109;52.148;4.466;2023-08-20T04:58:38;3.90;;;1.80;;
67981;SDS011;64109;52.148;4.466;2023-08-20T05:01:04;3.47;;;1.58;;
67981;SDS011;64109;52.148;4.466;2023-08-20T05:03:31;4.22;;;2.25;;
67981;SDS011;64109;52.148;4.466;2023-08-20T05:05:57;4.35;;;1.77;;
67981;SDS011;64109;52.148;4.466;2023-08-20T05:08:23;3.20;;;1.50;;
67981;SDS011;64109;52.148;4.466;2023-08-20T05:10:49;2.55;;;0.90;;
67981;SDS011;64109;52.148;4.466;2023-08-20T05:13:16;5.63;;;2.10;;
67981;SDS011;64109;52.148;4.466;2023-08-20T05:15:42;3.22;;;1.73;;
67981;SDS011;64109;52.148;4.466;2023-08-20T05:18:08;4.53;;;2.25;;
67981;SDS011;64109;52.148;4.466;2023-08-20T05:20:34;4.13;;;1.92;;
67981;SDS011;64109;52.148;4.466;2023-08-20T05:23:00;3.17;;;0.95;;
67981;SDS011;64109;52.148;4.466;2023-08-20T05:25:26;3.67;;;1.77;;
67981;SDS011;64109;52.148;4.466;2023-08-20T05:27:52;4.53;;;1.20;;
67981;SDS011;64109;52.148;4.466;2023-08-20T05:30:18;2.47;;;1.80;;
67981;SDS011;64109;52.148;4.466;2023-08-20T05:32:44;4.45;;;1.98;;
67981;SDS011;64109;52.148;4.466;2023-08-20T05:35:10;3.45;;;1.73;;
67981;SDS011;64109;52.148;4.466;2023-08-20T05:37:36;5.40;;;2.47;;
67981;SDS011;64109;52.148;4.466;2023-08-20T05:40:02;3.45;;;1.10;;
67981;SDS011;64109;52.148;4.466;2023-08-20T05:42:28;5.15;;;1.95;;
67981;SDS011;64109;52.148;4.466;2023-08-20T05:44:54;4.25;;;1.48;;
67981;SDS011;64109;52.148;4.466;2023-08-20T05:47:20;5.55;;;1.95;;
67981;SDS011;64109;52.148;4.466;2023-08-20T05:49:46;3.50;;;1.40;;
67981;SDS011;64109;52.148;4.466;2023-08-20T05:52:12;3.33;;;1.83;;
67981;SDS011;64109;52.148;4.466;2023-08-20T05:54:38;2.78;;;1.80;;
67981;SDS011;64109;52.148;4.466;2023-08-20T05:57:04;5.55;;;1.80;;
67981;SDS011;64109;52.148;4.466;2023-08-20T05:59:30;4.47;;;1.90;;
67981;SDS011;64109;52.148;4.466;2023-08-20T06:01:56;3.83;;;1.80;;
67981;SDS011;64109;52.148;4.466;2023-08-20T06:04:22;4.03;;;1.65;;
67981;SDS011;64109;52.148;4.466;2023-08-20T06:06:48;4.97;;;1.73;;
67981;SDS011;64109;52.148;4.466;2023-08-20T06:09:14;7.45;;;1.88;;
67981;SDS011;64109;52.148;4.466;2023-08-20T06:11:40;5.93;;;2.05;;
67981;SDS011;64109;52.148;4.466;2023-08-20T06:14:06;7.57;;;1.65;;
67981;SDS011;64109;52.148;4.466;2023-08-20T06:16:32;6.85;;;2.10;;
67981;SDS011;64109;52.148;4.466;2023-08-20T06:18:58;6.50;;;2.40;;
67981;SDS011;64109;52.148;4.466;2023-08-20T06:21:24;6.50;;;2.10;;
67981;SDS011;64109;52.148;4.466;2023-08-20T06:23:50;7.28;;;1.63;;
67981;SDS011;64109;52.148;4.466;2023-08-20T06:26:16;9.23;;;1.58;;
67981;SDS011;64109;52.148;4.466;2023-08-20T06:28:42;5.18;;;1.83;;
67981;SDS011;64109;52.148;4.466;2023-08-20T06:31:08;8.13;;;2.17;;
67981;SDS011;64109;52.148;4.466;2023-08-20T06:33:34;5.35;;;2.40;;
67981;SDS011;64109;52.148;4.466;2023-08-20T06:36:00;5.80;;;2.15;;
67981;SDS011;64109;52.148;4.466;2023-08-20T06:38:26;5.93;;;1.98;;
67981;SDS011;64109;52.148;4.466;2023-08-20T06:40:52;7.15;;;1.67;;
67981;SDS011;64109;52.148;4.466;2023-08-20T06:43:18;8.07;;;2.58;;
67981;SDS011;64109;52.148;4.466;2023-08-20T06:45:44;8.07;;;2.75;;
67981;SDS011;64109;52.148;4.466;2023-08-20T06:48:10;8.93;;;2.38;;
67981;SDS011;64109;52.148;4.466;2023-08-20T06:50:36;10.10;;;2.85;;
67981;SDS011;64109;52.148;4.466;2023-08-20T06:53:02;10.13;;;3.72;;
67981;SDS011;64109;52.148;4.466;2023-08-20T06:55:28;9.10;;;2.80;;
67981;SDS011;64109;52.148;4.466;2023-08-20T06:57:54;7.32;;;2.33;;
67981;SDS011;64109;52.148;4.466;2023-08-20T07:00:20;10.77;;;2.78;;
67981;SDS011;64109;52.148;4.466;2023-08-20T07:02:46;8.07;;;2.15;;
67981;SDS011;64109;52.148;4.466;2023-08-20T07:05:12;9.45;;;2.50;;
67981;SDS011;64109;52.148;4.466;2023-08-20T07:07:39;6.43;;;1.60;;
67981;SDS011;64109;52.148;4.466;2023-08-20T07:10:06;9.30;;;2.22;;
67981;SDS011;64109;52.148;4.466;2023-08-20T07:12:32;7.68;;;2.72;;
67981;SDS011;64109;52.148;4.466;2023-08-20T07:14:58;8.68;;;2.47;;
67981;SDS011;64109;52.148;4.466;2023-08-20T07:17:24;6.85;;;2.17;;
67981;SDS011;64109;52.148;4.466;2023-08-20T07:19:50;8.90;;;2.50;;
67981;SDS011;64109;52.148;4.466;2023-08-20T07:22:16;7.47;;;2.00;;
67981;SDS011;64109;52.148;4.466;2023-08-20T07:24:42;8.60;;;2.97;;
67981;SDS011;64109;52.148;4.466;2023-08-20T07:27:08;8.05;;;2.47;;
67981;SDS011;64109;52.148;4.466;2023-08-20T07:29:37;7.68;;;2.53;;
67981;SDS011;64109;52.148;4.466;2023-08-20T07:32:03;6.78;;;2.10;;
67981;SDS011;64109;52.148;4.466;2023-08-20T07:34:29;6.78;;;2.60;;
67981;SDS011;64109;52.148;4.466;2023-08-20T07:36:56;6.63;;;2.28;;
67981;SDS011;64109;52.148;4.466;2023-08-20T07:39:22;7.07;;;2.45;;
67981;SDS011;64109;52.148;4.466;2023-08-20T07:41:48;8.05;;;2.08;;
67981;SDS011;64109;52.148;4.466;2023-08-20T07:44:14;7.45;;;2.40;;
67981;SDS011;64109;52.148;4.466;2023-08-20T07:46:40;5.90;;;1.67;;
67981;SDS011;64109;52.148;4.466;2023-08-20T07:49:06;9.80;;;2.13;;
67981;SDS011;64109;52.148;4.466;2023-08-20T07:51:32;8.75;;;2.28;;
67981;SDS011;64109;52.148;4.466;2023-08-20T07:53:58;6.80;;;2.40;;
67981;SDS011;64109;52.148;4.466;2023-08-20T07:56:24;9.18;;;2.22;;
67981;SDS011;64109;52.148;4.466;2023-08-20T07:58:50;13.75;;;2.17;;
67981;SDS011;64109;52.148;4.466;2023-08-20T08:01:16;8.57;;;2.70;;
67981;SDS011;64109;52.148;4.466;2023-08-20T08:03:42;7.00;;;2.00;;
67981;SDS011;64109;52.148;4.466;2023-08-20T08:06:08;4.68;;;1.95;;
67981;SDS011;64109;52.148;4.466;2023-08-20T08:08:34;6.70;;;2.10;;
67981;SDS011;64109;52.148;4.466;2023-08-20T08:11:00;4.97;;;2.03;;
67981;SDS011;64109;52.148;4.466;2023-08-20T08:13:26;5.82;;;2.20;;
67981;SDS011;64109;52.148;4.466;2023-08-20T08:15:52;8.20;;;1.67;;
67981;SDS011;64109;52.148;4.466;2023-08-20T08:18:19;9.35;;;3.33;;
67981;SDS011;64109;52.148;4.466;2023-08-20T08:20:45;10.57;;;2.40;;
67981;SDS011;64109;52.148;4.466;2023-08-20T08:23:11;8.70;;;2.80;;
67981;SDS011;64109;52.148;4.466;2023-08-20T08:25:37;7.93;;;2.05;;
67981;SDS011;64109;52.148;4.466;2023-08-20T08:28:03;6.32;;;2.17;;
67981;SDS011;64109;52.148;4.466;2023-08-20T08:30:30;5.93;;;2.20;;
67981;SDS011;64109;52.148;4.466;2023-08-20T08:32:56;8.63;;;1.92;;
67981;SDS011;64109;52.148;4.466;2023-08-20T08:35:22;7.10;;;1.80;;
67981;SDS011;64109;52.148;4.466;2023-08-20T08:37:48;8.98;;;2.70;;
67981;SDS011;64109;52.148;4.466;2023-08-20T08:40:14;5.95;;;2.53;;
67981;SDS011;64109;52.148;4.466;2023-08-20T08:42:40;7.75;;;2.65;;
67981;SDS011;64109;52.148;4.466;2023-08-20T08:45:09;6.25;;;2.20;;
67981;SDS011;64109;52.148;4.466;2023-08-20T08:47:39;6.97;;;2.10;;
67981;SDS011;64109;52.148;4.466;2023-08-20T08:50:05;7.47;;;1.60;;
67981;SDS011;64109;52.148;4.466;2023-08-20T08:52:32;5.85;;;2.40;;
67981;SDS011;64109;52.148;4.466;2023-08-20T08:54:58;6.65;;;1.52;;
67981;SDS011;64109;52.148;4.466;2023-08-20T08:57:24;6.38;;;2.15;;
67981;SDS011;64109;52.148;4.466;2023-08-20T08:59:50;8.57;;;2.45;;
67981;SDS011;64109;52.148;4.466;2023-08-20T09:02:16;5.63;;;1.55;;
67981;SDS011;64109;52.148;4.466;2023-08-20T09:04:43;6.00;;;2.17;;
67981;SDS011;64109;52.148;4.466;2023-08-20T09:07:13;7.93;;;1.85;;
67981;SDS011;64109;52.148;4.466;2023-08-20T09:09:43;5.35;;;1.92;;
67981;SDS011;64109;52.148;4.466;2023-08-20T09:12:13;6.93;;;1.92;;
67981;SDS011;64109;52.148;4.466;2023-08-20T09:14:39;6.20;;;2.00;;
67981;SDS011;64109;52.148;4.466;2023-08-20T09:17:09;5.95;;;2.25;;
67981;SDS011;64109;52.148;4.466;2023-08-20T09:19:35;6.03;;;2.13;;
67981;SDS011;64109;52.148;4.466;2023-08-20T09:22:05;6.85;;;2.17;;
67981;SDS011;64109;52.148;4.466;2023-08-20T09:24:38;5.82;;;2.03;;
67981;SDS011;64109;52.148;4.466;2023-08-20T09:27:04;7.03;;;2.05;;
67981;SDS011;64109;52.148;4.466;2023-08-20T09:29:43;7.68;;;1.90;;
67981;SDS011;64109;52.148;4.466;2023-08-20T09:32:13;7.22;;;2.05;;
67981;SDS011;64109;52.148;4.466;2023-08-20T09:34:39;7.15;;;1.70;;
67981;SDS011;64109;52.148;4.466;2023-08-20T09:37:09;7.88;;;2.03;;
67981;SDS011;64109;52.148;4.466;2023-08-20T09:39:35;7.47;;;1.95;;
67981;SDS011;64109;52.148;4.466;2023-08-20T09:42:01;7.38;;;1.90;;
67981;SDS011;64109;52.148;4.466;2023-08-20T09:44:32;5.97;;;1.25;;
67981;SDS011;64109;52.148;4.466;2023-08-20T09:47:02;5.88;;;2.38;;
67981;SDS011;64109;52.148;4.466;2023-08-20T09:49:30;6.07;;;1.90;;
67981;SDS011;64109;52.148;4.466;2023-08-20T09:51:57;5.07;;;1.90;;
67981;SDS011;64109;52.148;4.466;2023-08-20T09:57:00;8.20;;;1.95;;
67981;SDS011;64109;52.148;4.466;2023-08-20T09:59:27;5.13;;;1.90;;
67981;SDS011;64109;52.148;4.466;2023-08-20T10:01:53;5.57;;;2.10;;
67981;SDS011;64109;52.148;4.466;2023-08-20T10:04:20;3.67;;;2.05;;
67981;SDS011;64109;52.148;4.466;2023-08-20T10:06:47;7.47;;;1.85;;
67981;SDS011;64109;52.148;4.466;2023-08-20T10:09:14;7.35;;;1.67;;
67981;SDS011;64109;52.148;4.466;2023-08-20T10:11:40;5.35;;;1.30;;
67981;SDS011;64109;52.148;4.466;2023-08-20T10:14:06;9.70;;;1.80;;
67981;SDS011;64109;52.148;4.466;2023-08-20T10:16:32;9.35;;;2.22;;
67981;SDS011;64109;52.148;4.466;2023-08-20T10:19:08;6.03;;;2.10;;
67981;SDS011;64109;52.148;4.466;2023-08-20T10:24:06;7.00;;;2.38;;
67981;SDS011;64109;52.148;4.466;2023-08-20T10:26:35;5.85;;;1.92;;
67981;SDS011;64109;52.148;4.466;2023-08-20T10:31:46;5.40;;;1.27;;
67981;SDS011;64109;52.148;4.466;2023-08-20T10:34:12;5.30;;;1.23;;
67981;SDS011;64109;52.148;4.466;2023-08-20T10:36:57;6.57;;;2.50;;
67981;SDS011;64109;52.148;4.466;2023-08-20T10:39:23;5.40;;;2.20;;
67981;SDS011;64109;52.148;4.466;2023-08-20T10:41:50;5.03;;;1.42;;
67981;SDS011;64109;52.148;4.466;2023-08-20T10:47:18;7.25;;;2.33;;
67981;SDS011;64109;52.148;4.466;2023-08-20T10:49:44;5.22;;;1.88;;
67981;SDS011;64109;52.148;4.466;2023-08-20T10:52:10;5.65;;;2.05;;
67981;SDS011;64109;52.148;4.466;2023-08-20T10:54:36;8.45;;;1.30;;
67981;SDS011;64109;52.148;4.466;2023-08-20T10:57:02;6.53;;;1.90;;
67981;SDS011;64109;52.148;4.466;2023-08-20T10:59:30;3.55;;;1.00;;
67981;SDS011;64109;52.148;4.466;2023-08-20T11:01:56;4.53;;;1.50;;
67981;SDS011;64109;52.148;4.466;2023-08-20T11:04:23;3.53;;;1.40;;
67981;SDS011;64109;52.148;4.466;2023-08-20T11:06:53;4.97;;;1.73;;
67981;SDS011;64109;52.148;4.466;2023-08-20T11:09:22;5.65;;;2.35;;
67981;SDS011;64109;52.148;4.466;2023-08-20T11:11:49;5.25;;;1.75;;
67981;SDS011;64109;52.148;4.466;2023-08-20T11:14:17;5.40;;;1.10;;
67981;SDS011;64109;52.148;4.466;2023-08-20T11:16:44;9.23;;;2.90;;
67981;SDS011;64109;52.148;4.466;2023-08-20T11:19:11;5.60;;;1.80;;
67981;SDS011;64109;52.148;4.466;2023-08-20T11:21:40;5.43;;;1.58;;
67981;SDS011;64109;52.148;4.466;2023-08-20T11:24:06;5.22;;;1.27;;
67981;SDS011;64109;52.148;4.466;2023-08-20T11:26:33;9.48;;;1.20;;
67981;SDS011;64109;52.148;4.466;2023-08-20T11:29:08;6.07;;;1.80;;
67981;SDS011;64109;52.148;4.466;2023-08-20T11:31:35;5.35;;;2.00;;
67981;SDS011;64109;52.148;4.466;2023-08-20T11:34:02;5.53;;;1.85;;
67981;SDS011;64109;52.148;4.466;2023-08-20T11:36:28;8.45;;;2.08;;
67981;SDS011;64109;52.148;4.466;2023-08-20T11:38:55;5.07;;;1.48;;
67981;SDS011;64109;52.148;4.466;2023-08-20T11:41:21;7.47;;;2.28;;
67981;SDS011;64109;52.148;4.466;2023-08-20T11:43:47;7.90;;;2.05;;
67981;SDS011;64109;52.148;4.466;2023-08-20T11:46:14;6.32;;;1.95;;
67981;SDS011;64109;52.148;4.466;2023-08-20T11:51:28;7.95;;;1.70;;
67981;SDS011;64109;52.148;4.466;2023-08-20T11:53:57;6.65;;;2.05;;
67981;SDS011;64109;52.148;4.466;2023-08-20T11:56:23;4.28;;;1.58;;
67981;SDS011;64109;52.148;4.466;2023-08-20T11:58:50;3.28;;;1.70;;
67981;SDS011;64109;52.148;4.466;2023-08-20T12:01:17;3.50;;;1.13;;
67981;SDS011;64109;52.148;4.466;2023-08-20T12:03:43;4.53;;;1.38;;
67981;SDS011;64109;52.148;4.466;2023-08-20T12:06:17;3.53;;;1.60;;
67981;SDS011;64109;52.148;4.466;2023-08-20T12:08:43;6.32;;;1.85;;
67981;SDS011;64109;52.148;4.466;2023-08-20T12:11:09;4.60;;;1.67;;
67981;SDS011;64109;52.148;4.466;2023-08-20T12:13:35;4.05;;;1.77;;
67981;SDS011;64109;52.148;4.466;2023-08-20T12:16:01;4.13;;;1.50;;
67981;SDS011;64109;52.148;4.466;2023-08-20T12:18:27;7.65;;;1.90;;
67981;SDS011;64109;52.148;4.466;2023-08-20T12:20:54;4.43;;;1.52;;
67981;SDS011;64109;52.148;4.466;2023-08-20T12:23:21;3.22;;;1.40;;
67981;SDS011;64109;52.148;4.466;2023-08-20T12:25:49;6.53;;;2.17;;
67981;SDS011;64109;52.148;4.466;2023-08-20T12:28:16;5.63;;;1.65;;
67981;SDS011;64109;52.148;4.466;2023-08-20T12:30:42;4.40;;;1.40;;
67981;SDS011;64109;52.148;4.466;2023-08-20T12:33:09;4.80;;;1.73;;
67981;SDS011;64109;52.148;4.466;2023-08-20T12:35:36;3.47;;;1.58;;
67981;SDS011;64109;52.148;4.466;2023-08-20T12:38:02;4.38;;;0.82;;
67981;SDS011;64109;52.148;4.466;2023-08-20T12:40:29;6.85;;;1.75;;
67981;SDS011;64109;52.148;4.466;2023-08-20T12:42:55;4.80;;;1.20;;
67981;SDS011;64109;52.148;4.466;2023-08-20T12:45:21;5.55;;;1.88;;
67981;SDS011;64109;52.148;4.466;2023-08-20T12:47:47;5.00;;;1.63;;
67981;SDS011;64109;52.148;4.466;2023-08-20T12:50:13;3.45;;;1.52;;
67981;SDS011;64109;52.148;4.466;2023-08-20T12:52:39;4.25;;;1.65;;
67981;SDS011;64109;52.148;4.466;2023-08-20T12:55:06;3.85;;;1.77;;
67981;SDS011;64109;52.148;4.466;2023-08-20T12:57:35;3.90;;;1.60;;
67981;SDS011;64109;52.148;4.466;2023-08-20T13:02:32;4.18;;;1.27;;
67981;SDS011;64109;52.148;4.466;2023-08-20T13:04:58;5.25;;;1.45;;
67981;SDS011;64109;52.148;4.466;2023-08-20T13:07:24;4.05;;;1.27;;
67981;SDS011;64109;52.148;4.466;2023-08-20T13:09:50;4.22;;;1.80;;
67981;SDS011;64109;52.148;4.466;2023-08-20T13:12:16;3.67;;;1.63;;
67981;SDS011;64109;52.148;4.466;2023-08-20T13:14:44;4.93;;;1.55;;
67981;SDS011;64109;52.148;4.466;2023-08-20T13:17:10;5.05;;;1.30;;
67981;SDS011;64109;52.148;4.466;2023-08-20T13:19:36;2.30;;;1.58;;
67981;SDS011;64109;52.148;4.466;2023-08-20T13:22:02;4.50;;;1.90;;
67981;SDS011;64109;52.148;4.466;2023-08-20T13:24:28;3.03;;;1.40;;
67981;SDS011;64109;52.148;4.466;2023-08-20T13:26:55;5.47;;;1.67;;
67981;SDS011;64109;52.148;4.466;2023-08-20T13:29:21;4.00;;;1.58;;
67981;SDS011;64109;52.148;4.466;2023-08-20T13:31:47;3.70;;;1.40;;
67981;SDS011;64109;52.148;4.466;2023-08-20T13:34:12;3.58;;;0.80;;
67981;SDS011;64109;52.148;4.466;2023-08-20T13:36:38;4.82;;;1.90;;
67981;SDS011;64109;52.148;4.466;2023-08-20T13:39:05;4.55;;;1.40;;
67981;SDS011;64109;52.148;4.466;2023-08-20T13:41:31;6.05;;;1.60;;
67981;SDS011;64109;52.148;4.466;2023-08-20T13:43:56;2.75;;;1.50;;
67981;SDS011;64109;52.148;4.466;2023-08-20T13:46:23;3.58;;;1.50;;
67981;SDS011;64109;52.148;4.466;2023-08-20T13:48:49;3.75;;;1.50;;
67981;SDS011;64109;52.148;4.466;2023-08-20T13:51:15;4.03;;;1.50;;
67981;SDS011;64109;52.148;4.466;2023-08-20T13:53:41;3.22;;;1.23;;
67981;SDS011;64109;52.148;4.466;2023-08-20T13:56:07;3.60;;;1.40;;
67981;SDS011;64109;52.148;4.466;2023-08-20T13:58:33;4.03;;;1.75;;
67981;SDS011;64109;52.148;4.466;2023-08-20T14:00:59;2.63;;;1.40;;
67981;SDS011;64109;52.148;4.466;2023-08-20T14:03:25;4.85;;;1.40;;
67981;SDS011;64109;52.148;4.466;2023-08-20T14:05:51;4.35;;;1.60;;
67981;SDS011;64109;52.148;4.466;2023-08-20T14:08:17;3.42;;;0.90;;
67981;SDS011;64109;52.148;4.466;2023-08-20T14:10:43;3.60;;;1.63;;
67981;SDS011;64109;52.148;4.466;2023-08-20T14:13:09;3.85;;;1.48;;
67981;SDS011;64109;52.148;4.466;2023-08-20T14:15:35;6.45;;;1.55;;
67981;SDS011;64109;52.148;4.466;2023-08-20T14:18:01;4.53;;;1.48;;
67981;SDS011;64109;52.148;4.466;2023-08-20T14:20:27;6.22;;;1.13;;
67981;SDS011;64109;52.148;4.466;2023-08-20T14:22:54;2.92;;;1.15;;
67981;SDS011;64109;52.148;4.466;2023-08-20T14:25:20;5.20;;;1.58;;
67981;SDS011;64109;52.148;4.466;2023-08-20T14:27:46;5.32;;;1.00;;
67981;SDS011;64109;52.148;4.466;2023-08-20T14:30:12;6.13;;;1.70;;
67981;SDS011;64109;52.148;4.466;2023-08-20T14:32:38;3.50;;;1.70;;
67981;SDS011;64109;52.148;4.466;2023-08-20T14:35:04;3.72;;;1.50;;
67981;SDS011;64109;52.148;4.466;2023-08-20T14:37:30;5.07;;;1.50;;
67981;SDS011;64109;52.148;4.466;2023-08-20T14:39:56;5.05;;;1.38;;
67981;SDS011;64109;52.148;4.466;2023-08-20T14:42:22;5.70;;;1.20;;
67981;SDS011;64109;52.148;4.466;2023-08-20T14:44:48;5.75;;;1.35;;
67981;SDS011;64109;52.148;4.466;2023-08-20T14:47:14;4.88;;;1.65;;
67981;SDS011;64109;52.148;4.466;2023-08-20T14:49:40;6.60;;;1.92;;
67981;SDS011;64109;52.148;4.466;2023-08-20T14:52:06;4.80;;;1.35;;
67981;SDS011;64109;52.148;4.466;2023-08-20T14:54:32;5.43;;;1.27;;
67981;SDS011;64109;52.148;4.466;2023-08-20T14:56:58;3.95;;;1.63;;
67981;SDS011;64109;52.148;4.466;2023-08-20T14:59:24;4.88;;;1.00;;
67981;SDS011;64109;52.148;4.466;2023-08-20T15:01:51;4.63;;;1.63;;
67981;SDS011;64109;52.148;4.466;2023-08-20T15:04:17;3.17;;;1.63;;
67981;SDS011;64109;52.148;4.466;2023-08-20T15:06:43;3.42;;;1.92;;